sensor_id;sensor_type;location;lat;lon;timestamp;P1;durP1;ratioP1;P2;durP2;ratioP2
34242;SDS011;20504;43.214;27.920;2022-12-18T00:00:27;6.93;;;4.77;;
34242;SDS011;20504;43.214;27.920;2022-12-18T00:02:52;5.80;;;4.33;;
34242;SDS011;20504;43.214;27.920;2022-12-18T00:05:18;6.73;;;4.40;;
34242;SDS011;20504;43.214;27.920;2022-12-18T00:07:43;6.57;;;4.17;;
34242;SDS011;20504;43.214;27.920;2022-12-18T00:10:09;6.27;;;4.20;;
34242;SDS011;20504;43.214;27.920;2022-12-18T00:12:34;4.10;;;3.27;;
34242;SDS011;20504;43.214;27.920;2022-12-18T00:15:00;3.67;;;3.00;;
34242;SDS011;20504;43.214;27.920;2022-12-18T00:17:25;4.93;;;3.60;;
34242;SDS011;20504;43.214;27.920;2022-12-18T00:19:50;4.57;;;3.90;;
34242;SDS011;20504;43.214;27.920;2022-12-18T00:22:16;6.23;;;3.70;;
34242;SDS011;20504;43.214;27.920;2022-12-18T00:27:08;5.20;;;3.72;;
34242;SDS011;20504;43.214;27.920;2022-12-18T00:29:33;5.70;;;4.23;;
34242;SDS011;20504;43.214;27.920;2022-12-18T00:31:59;7.40;;;4.27;;
34242;SDS011;20504;43.214;27.920;2022-12-18T00:34:24;5.53;;;3.97;;
34242;SDS011;20504;43.214;27.920;2022-12-18T00:36:50;4.70;;;3.57;;
34242;SDS011;20504;43.214;27.920;2022-12-18T00:39:15;6.90;;;3.87;;
34242;SDS011;20504;43.214;27.920;2022-12-18T00:41:41;6.90;;;4.47;;
34242;SDS011;20504;43.214;27.920;2022-12-18T00:44:25;5.65;;;4.13;;
34242;SDS011;20504;43.214;27.920;2022-12-18T00:46:50;4.97;;;3.90;;
34242;SDS011;20504;43.214;27.920;2022-12-18T00:49:17;5.30;;;4.00;;
34242;SDS011;20504;43.214;27.920;2022-12-18T00:51:43;4.82;;;3.90;;
34242;SDS011;20504;43.214;27.920;2022-12-18T00:54:09;6.83;;;4.60;;
34242;SDS011;20504;43.214;27.920;2022-12-18T00:56:35;8.97;;;4.00;;
34242;SDS011;20504;43.214;27.920;2022-12-18T00:59:02;5.80;;;4.20;;
34242;SDS011;20504;43.214;27.920;2022-12-18T01:01:28;5.38;;;4.20;;
34242;SDS011;20504;43.214;27.920;2022-12-18T01:03:53;6.43;;;3.23;;
34242;SDS011;20504;43.214;27.920;2022-12-18T01:06:19;5.93;;;4.00;;
34242;SDS011;20504;43.214;27.920;2022-12-18T01:08:44;7.87;;;4.50;;
34242;SDS011;20504;43.214;27.920;2022-12-18T01:11:15;5.97;;;4.33;;
34242;SDS011;20504;43.214;27.920;2022-12-18T01:13:43;5.15;;;3.92;;
34242;SDS011;20504;43.214;27.920;2022-12-18T01:16:10;5.72;;;3.60;;
34242;SDS011;20504;43.214;27.920;2022-12-18T01:18:37;7.25;;;4.40;;
34242;SDS011;20504;43.214;27.920;2022-12-18T01:21:09;5.23;;;3.63;;
34242;SDS011;20504;43.214;27.920;2022-12-18T01:23:36;5.70;;;3.90;;
34242;SDS011;20504;43.214;27.920;2022-12-18T01:26:10;5.38;;;4.13;;
34242;SDS011;20504;43.214;27.920;2022-12-18T01:28:37;4.57;;;3.85;;
34242;SDS011;20504;43.214;27.920;2022-12-18T01:31:14;5.32;;;4.03;;
34242;SDS011;20504;43.214;27.920;2022-12-18T01:33:45;5.90;;;3.95;;
34242;SDS011;20504;43.214;27.920;2022-12-18T01:38:51;8.30;;;4.40;;
34242;SDS011;20504;43.214;27.920;2022-12-18T01:43:46;5.97;;;4.80;;
34242;SDS011;20504;43.214;27.920;2022-12-18T01:46:15;5.78;;;4.13;;
34242;SDS011;20504;43.214;27.920;2022-12-18T01:48:42;8.80;;;4.43;;
34242;SDS011;20504;43.214;27.920;2022-12-18T01:51:11;6.63;;;4.20;;
34242;SDS011;20504;43.214;27.920;2022-12-18T01:53:38;6.15;;;4.82;;
34242;SDS011;20504;43.214;27.920;2022-12-18T01:56:05;8.30;;;4.40;;
34242;SDS011;20504;43.214;27.920;2022-12-18T02:01:19;5.80;;;4.28;;
34242;SDS011;20504;43.214;27.920;2022-12-18T02:03:47;5.78;;;4.25;;
34242;SDS011;20504;43.214;27.920;2022-12-18T02:06:18;6.00;;;4.13;;
34242;SDS011;20504;43.214;27.920;2022-12-18T02:12:05;5.60;;;4.25;;
34242;SDS011;20504;43.214;27.920;2022-12-18T02:15:26;6.07;;;4.18;;
34242;SDS011;20504;43.214;27.920;2022-12-18T02:20:38;6.00;;;4.38;;
34242;SDS011;20504;43.214;27.920;2022-12-18T02:28:45;9.68;;;4.50;;
34242;SDS011;20504;43.214;27.920;2022-12-18T02:31:18;6.57;;;4.32;;
34242;SDS011;20504;43.214;27.920;2022-12-18T02:33:52;6.60;;;4.70;;
34242;SDS011;20504;43.214;27.920;2022-12-18T02:36:21;5.15;;;4.10;;
34242;SDS011;20504;43.214;27.920;2022-12-18T02:38:48;5.80;;;3.92;;
34242;SDS011;20504;43.214;27.920;2022-12-18T02:41:17;5.57;;;4.38;;
34242;SDS011;20504;43.214;27.920;2022-12-18T02:48:50;5.53;;;4.13;;
34242;SDS011;20504;43.214;27.920;2022-12-18T02:51:29;5.97;;;4.45;;
34242;SDS011;20504;43.214;27.920;2022-12-18T02:54:10;7.05;;;4.40;;
34242;SDS011;20504;43.214;27.920;2022-12-18T02:56:47;5.97;;;4.65;;
34242;SDS011;20504;43.214;27.920;2022-12-18T02:59:18;8.02;;;4.57;;
34242;SDS011;20504;43.214;27.920;2022-12-18T03:02:00;6.40;;;4.45;;
34242;SDS011;20504;43.214;27.920;2022-12-18T03:04:50;5.72;;;3.90;;
34242;SDS011;20504;43.214;27.920;2022-12-18T03:07:33;4.63;;;3.92;;
34242;SDS011;20504;43.214;27.920;2022-12-18T03:10:03;5.72;;;4.20;;
34242;SDS011;20504;43.214;27.920;2022-12-18T03:12:35;5.47;;;4.20;;
34242;SDS011;20504;43.214;27.920;2022-12-18T03:15:09;6.65;;;4.57;;
34242;SDS011;20504;43.214;27.920;2022-12-18T03:17:41;5.97;;;4.28;;
34242;SDS011;20504;43.214;27.920;2022-12-18T03:20:15;6.47;;;4.95;;
34242;SDS011;20504;43.214;27.920;2022-12-18T03:22:44;6.93;;;4.68;;
34242;SDS011;20504;43.214;27.920;2022-12-18T03:25:14;6.03;;;4.55;;
34242;SDS011;20504;43.214;27.920;2022-12-18T03:27:46;6.22;;;4.75;;
34242;SDS011;20504;43.214;27.920;2022-12-18T03:30:14;6.93;;;5.40;;
34242;SDS011;20504;43.214;27.920;2022-12-18T03:35:26;8.13;;;4.97;;
34242;SDS011;20504;43.214;27.920;2022-12-18T03:37:56;6.05;;;4.63;;
34242;SDS011;20504;43.214;27.920;2022-12-18T03:40:33;6.30;;;4.82;;
34242;SDS011;20504;43.214;27.920;2022-12-18T03:43:10;6.07;;;4.60;;
34242;SDS011;20504;43.214;27.920;2022-12-18T03:45:54;5.50;;;4.50;;
34242;SDS011;20504;43.214;27.920;2022-12-18T03:48:44;5.97;;;4.45;;
34242;SDS011;20504;43.214;27.920;2022-12-18T03:51:16;5.55;;;4.07;;
34242;SDS011;20504;43.214;27.920;2022-12-18T03:53:59;8.65;;;4.35;;
34242;SDS011;20504;43.214;27.920;2022-12-18T03:56:28;6.30;;;4.40;;
34242;SDS011;20504;43.214;27.920;2022-12-18T03:58:57;4.60;;;3.70;;
34242;SDS011;20504;43.214;27.920;2022-12-18T04:01:27;8.20;;;4.10;;
34242;SDS011;20504;43.214;27.920;2022-12-18T04:03:58;6.43;;;4.30;;
34242;SDS011;20504;43.214;27.920;2022-12-18T04:06:25;5.47;;;3.92;;
34242;SDS011;20504;43.214;27.920;2022-12-18T04:08:52;9.00;;;4.35;;
34242;SDS011;20504;43.214;27.920;2022-12-18T04:11:18;7.00;;;4.10;;
34242;SDS011;20504;43.214;27.920;2022-12-18T04:13:44;6.13;;;4.03;;
34242;SDS011;20504;43.214;27.920;2022-12-18T04:16:09;6.67;;;4.00;;
34242;SDS011;20504;43.214;27.920;2022-12-18T04:18:35;6.80;;;4.20;;
34242;SDS011;20504;43.214;27.920;2022-12-18T04:21:01;7.07;;;4.23;;
34242;SDS011;20504;43.214;27.920;2022-12-18T04:23:27;7.05;;;4.50;;
34242;SDS011;20504;43.214;27.920;2022-12-18T04:25:53;6.23;;;4.63;;
34242;SDS011;20504;43.214;27.920;2022-12-18T04:28:19;5.87;;;4.70;;
34242;SDS011;20504;43.214;27.920;2022-12-18T04:30:47;7.63;;;5.37;;
34242;SDS011;20504;43.214;27.920;2022-12-18T04:33:13;7.05;;;5.13;;
34242;SDS011;20504;43.214;27.920;2022-12-18T04:35:39;9.50;;;5.80;;
34242;SDS011;20504;43.214;27.920;2022-12-18T04:38:06;8.43;;;6.30;;
34242;SDS011;20504;43.214;27.920;2022-12-18T04:40:33;8.63;;;5.95;;
34242;SDS011;20504;43.214;27.920;2022-12-18T04:42:59;10.65;;;6.57;;
34242;SDS011;20504;43.214;27.920;2022-12-18T04:45:25;10.73;;;6.47;;
34242;SDS011;20504;43.214;27.920;2022-12-18T04:47:50;10.90;;;6.43;;
34242;SDS011;20504;43.214;27.920;2022-12-18T04:50:15;13.53;;;7.73;;
34242;SDS011;20504;43.214;27.920;2022-12-18T04:52:41;12.77;;;8.03;;
34242;SDS011;20504;43.214;27.920;2022-12-18T04:55:07;12.33;;;8.07;;
34242;SDS011;20504;43.214;27.920;2022-12-18T04:57:32;12.57;;;8.27;;
34242;SDS011;20504;43.214;27.920;2022-12-18T04:59:58;13.57;;;8.60;;
34242;SDS011;20504;43.214;27.920;2022-12-18T05:02:23;13.93;;;8.83;;
34242;SDS011;20504;43.214;27.920;2022-12-18T05:04:49;15.40;;;9.53;;
34242;SDS011;20504;43.214;27.920;2022-12-18T05:07:14;15.13;;;9.67;;
34242;SDS011;20504;43.214;27.920;2022-12-18T05:09:40;13.97;;;9.07;;
34242;SDS011;20504;43.214;27.920;2022-12-18T05:12:05;14.20;;;9.33;;
34242;SDS011;20504;43.214;27.920;2022-12-18T05:14:31;13.77;;;9.33;;
34242;SDS011;20504;43.214;27.920;2022-12-18T05:16:56;16.63;;;10.43;;
34242;SDS011;20504;43.214;27.920;2022-12-18T05:19:22;16.07;;;8.67;;
34242;SDS011;20504;43.214;27.920;2022-12-18T05:21:47;15.20;;;9.50;;
34242;SDS011;20504;43.214;27.920;2022-12-18T05:24:12;13.67;;;7.93;;
34242;SDS011;20504;43.214;27.920;2022-12-18T05:26:38;19.63;;;10.07;;
34242;SDS011;20504;43.214;27.920;2022-12-18T05:29:04;15.77;;;9.10;;
34242;SDS011;20504;43.214;27.920;2022-12-18T05:31:29;17.87;;;9.87;;
34242;SDS011;20504;43.214;27.920;2022-12-18T05:33:54;17.13;;;11.30;;
34242;SDS011;20504;43.214;27.920;2022-12-18T05:36:20;17.93;;;10.67;;
34242;SDS011;20504;43.214;27.920;2022-12-18T05:38:45;19.80;;;11.77;;
34242;SDS011;20504;43.214;27.920;2022-12-18T05:41:11;17.77;;;11.70;;
34242;SDS011;20504;43.214;27.920;2022-12-18T05:43:37;17.73;;;11.90;;
34242;SDS011;20504;43.214;27.920;2022-12-18T05:46:07;21.05;;;11.98;;
34242;SDS011;20504;43.214;27.920;2022-12-18T05:48:36;18.50;;;12.32;;
34242;SDS011;20504;43.214;27.920;2022-12-18T05:51:09;21.70;;;12.60;;
34242;SDS011;20504;43.214;27.920;2022-12-18T05:53:36;22.38;;;13.68;;
34242;SDS011;20504;43.214;27.920;2022-12-18T05:56:03;23.48;;;13.43;;
34242;SDS011;20504;43.214;27.920;2022-12-18T05:58:30;24.25;;;15.07;;
34242;SDS011;20504;43.214;27.920;2022-12-18T06:03:23;23.80;;;14.95;;
34242;SDS011;20504;43.214;27.920;2022-12-18T06:05:49;25.77;;;15.43;;
34242;SDS011;20504;43.214;27.920;2022-12-18T06:08:14;26.93;;;15.73;;
34242;SDS011;20504;43.214;27.920;2022-12-18T06:10:40;25.57;;;15.23;;
34242;SDS011;20504;43.214;27.920;2022-12-18T06:13:06;26.83;;;15.55;;
34242;SDS011;20504;43.214;27.920;2022-12-18T06:15:32;27.43;;;16.90;;
34242;SDS011;20504;43.214;27.920;2022-12-18T06:17:58;28.77;;;17.00;;
34242;SDS011;20504;43.214;27.920;2022-12-18T06:20:25;29.33;;;18.17;;
34242;SDS011;20504;43.214;27.920;2022-12-18T06:22:50;29.50;;;16.13;;
34242;SDS011;20504;43.214;27.920;2022-12-18T06:25:16;35.40;;;19.00;;
34242;SDS011;20504;43.214;27.920;2022-12-18T06:27:41;30.00;;;15.57;;
34242;SDS011;20504;43.214;27.920;2022-12-18T06:30:07;26.20;;;16.10;;
34242;SDS011;20504;43.214;27.920;2022-12-18T06:32:33;29.23;;;17.58;;
34242;SDS011;20504;43.214;27.920;2022-12-18T06:34:58;32.03;;;17.40;;
34242;SDS011;20504;43.214;27.920;2022-12-18T06:37:24;29.77;;;16.57;;
34242;SDS011;20504;43.214;27.920;2022-12-18T06:39:51;28.38;;;17.35;;
34242;SDS011;20504;43.214;27.920;2022-12-18T06:42:17;29.95;;;16.42;;
34242;SDS011;20504;43.214;27.920;2022-12-18T06:44:42;29.83;;;18.63;;
34242;SDS011;20504;43.214;27.920;2022-12-18T06:47:08;34.67;;;18.33;;
34242;SDS011;20504;43.214;27.920;2022-12-18T06:49:34;31.67;;;19.00;;
34242;SDS011;20504;43.214;27.920;2022-12-18T06:51:59;35.27;;;20.07;;
34242;SDS011;20504;43.214;27.920;2022-12-18T06:54:25;35.03;;;20.83;;
34242;SDS011;20504;43.214;27.920;2022-12-18T06:56:50;38.83;;;20.00;;
34242;SDS011;20504;43.214;27.920;2022-12-18T06:59:16;38.87;;;21.10;;
34242;SDS011;20504;43.214;27.920;2022-12-18T07:01:41;35.13;;;20.83;;
34242;SDS011;20504;43.214;27.920;2022-12-18T07:04:06;33.50;;;19.77;;
34242;SDS011;20504;43.214;27.920;2022-12-18T07:06:32;39.17;;;22.50;;
34242;SDS011;20504;43.214;27.920;2022-12-18T07:08:57;36.77;;;21.37;;
34242;SDS011;20504;43.214;27.920;2022-12-18T07:11:23;40.97;;;22.70;;
34242;SDS011;20504;43.214;27.920;2022-12-18T07:13:49;40.70;;;21.95;;
34242;SDS011;20504;43.214;27.920;2022-12-18T07:16:16;39.40;;;21.93;;
34242;SDS011;20504;43.214;27.920;2022-12-18T07:18:43;37.70;;;21.05;;
34242;SDS011;20504;43.214;27.920;2022-12-18T07:21:11;39.40;;;22.98;;
34242;SDS011;20504;43.214;27.920;2022-12-18T07:23:38;37.70;;;21.58;;
34242;SDS011;20504;43.214;27.920;2022-12-18T07:26:07;37.80;;;22.23;;
34242;SDS011;20504;43.214;27.920;2022-12-18T07:28:35;40.25;;;22.60;;
34242;SDS011;20504;43.214;27.920;2022-12-18T07:31:05;38.33;;;22.40;;
34242;SDS011;20504;43.214;27.920;2022-12-18T07:33:38;37.85;;;21.30;;
34242;SDS011;20504;43.214;27.920;2022-12-18T07:36:04;40.27;;;24.77;;
34242;SDS011;20504;43.214;27.920;2022-12-18T07:38:31;43.30;;;25.08;;
34242;SDS011;20504;43.214;27.920;2022-12-18T07:41:16;41.88;;;24.23;;
34242;SDS011;20504;43.214;27.920;2022-12-18T07:43:42;41.50;;;22.95;;
34242;SDS011;20504;43.214;27.920;2022-12-18T07:46:08;41.28;;;24.00;;
34242;SDS011;20504;43.214;27.920;2022-12-18T07:48:34;43.83;;;24.88;;
34242;SDS011;20504;43.214;27.920;2022-12-18T07:51:00;41.57;;;23.77;;
34242;SDS011;20504;43.214;27.920;2022-12-18T07:53:29;42.38;;;24.88;;
34242;SDS011;20504;43.214;27.920;2022-12-18T07:55:55;39.17;;;23.30;;
34242;SDS011;20504;43.214;27.920;2022-12-18T07:58:25;50.92;;;25.15;;
34242;SDS011;20504;43.214;27.920;2022-12-18T08:00:51;31.33;;;18.30;;
34242;SDS011;20504;43.214;27.920;2022-12-18T08:03:17;41.67;;;24.33;;
34242;SDS011;20504;43.214;27.920;2022-12-18T08:05:43;44.00;;;25.17;;
34242;SDS011;20504;43.214;27.920;2022-12-18T08:08:09;45.00;;;23.73;;
34242;SDS011;20504;43.214;27.920;2022-12-18T08:10:34;42.93;;;24.07;;
34242;SDS011;20504;43.214;27.920;2022-12-18T08:13:02;45.78;;;24.38;;
34242;SDS011;20504;43.214;27.920;2022-12-18T08:15:28;45.13;;;23.83;;
34242;SDS011;20504;43.214;27.920;2022-12-18T08:17:56;53.80;;;26.47;;
34242;SDS011;20504;43.214;27.920;2022-12-18T08:20:22;48.00;;;25.25;;
34242;SDS011;20504;43.214;27.920;2022-12-18T08:22:47;42.67;;;23.53;;
34242;SDS011;20504;43.214;27.920;2022-12-18T08:25:12;42.10;;;24.63;;
34242;SDS011;20504;43.214;27.920;2022-12-18T08:27:38;41.47;;;24.73;;
34242;SDS011;20504;43.214;27.920;2022-12-18T08:30:04;52.57;;;27.00;;
34242;SDS011;20504;43.214;27.920;2022-12-18T08:32:30;41.45;;;24.38;;
34242;SDS011;20504;43.214;27.920;2022-12-18T08:34:57;43.58;;;24.35;;
34242;SDS011;20504;43.214;27.920;2022-12-18T08:37:23;42.27;;;26.40;;
34242;SDS011;20504;43.214;27.920;2022-12-18T08:39:49;45.07;;;24.83;;
34242;SDS011;20504;43.214;27.920;2022-12-18T08:42:14;46.57;;;25.43;;
34242;SDS011;20504;43.214;27.920;2022-12-18T08:44:58;43.67;;;24.40;;
34242;SDS011;20504;43.214;27.920;2022-12-18T08:47:24;43.77;;;25.07;;
34242;SDS011;20504;43.214;27.920;2022-12-18T08:49:50;49.55;;;24.95;;
34242;SDS011;20504;43.214;27.920;2022-12-18T08:52:16;47.77;;;25.93;;
34242;SDS011;20504;43.214;27.920;2022-12-18T08:54:42;35.77;;;18.60;;
34242;SDS011;20504;43.214;27.920;2022-12-18T08:57:07;50.70;;;25.90;;
34242;SDS011;20504;43.214;27.920;2022-12-18T08:59:33;50.93;;;26.83;;
34242;SDS011;20504;43.214;27.920;2022-12-18T09:01:58;50.13;;;26.73;;
34242;SDS011;20504;43.214;27.920;2022-12-18T09:04:24;45.30;;;24.70;;
34242;SDS011;20504;43.214;27.920;2022-12-18T09:06:49;49.50;;;26.67;;
34242;SDS011;20504;43.214;27.920;2022-12-18T09:09:15;46.80;;;26.10;;
34242;SDS011;20504;43.214;27.920;2022-12-18T09:11:40;50.27;;;25.40;;
34242;SDS011;20504;43.214;27.920;2022-12-18T09:14:06;42.97;;;24.77;;
34242;SDS011;20504;43.214;27.920;2022-12-18T09:16:32;45.87;;;26.73;;
34242;SDS011;20504;43.214;27.920;2022-12-18T09:19:00;50.45;;;27.33;;
34242;SDS011;20504;43.214;27.920;2022-12-18T09:21:30;45.78;;;26.33;;
34242;SDS011;20504;43.214;27.920;2022-12-18T09:23:58;51.33;;;28.50;;
34242;SDS011;20504;43.214;27.920;2022-12-18T09:26:24;48.45;;;26.25;;
34242;SDS011;20504;43.214;27.920;2022-12-18T09:28:50;45.25;;;26.27;;
34242;SDS011;20504;43.214;27.920;2022-12-18T09:31:17;47.67;;;26.03;;
34242;SDS011;20504;43.214;27.920;2022-12-18T09:33:44;44.15;;;24.60;;
34242;SDS011;20504;43.214;27.920;2022-12-18T09:36:11;47.75;;;24.38;;
34242;SDS011;20504;43.214;27.920;2022-12-18T09:38:38;43.78;;;24.77;;
34242;SDS011;20504;43.214;27.920;2022-12-18T09:43:58;55.33;;;28.63;;
34242;SDS011;20504;43.214;27.920;2022-12-18T09:46:34;48.65;;;25.80;;
34242;SDS011;20504;43.214;27.920;2022-12-18T09:49:05;42.63;;;24.92;;
34242;SDS011;20504;43.214;27.920;2022-12-18T09:51:39;52.45;;;27.48;;
34242;SDS011;20504;43.214;27.920;2022-12-18T09:54:21;54.92;;;28.00;;
34242;SDS011;20504;43.214;27.920;2022-12-18T09:56:51;52.03;;;27.15;;
34242;SDS011;20504;43.214;27.920;2022-12-18T09:59:24;53.17;;;28.93;;
34242;SDS011;20504;43.214;27.920;2022-12-18T10:01:56;53.33;;;27.73;;
34242;SDS011;20504;43.214;27.920;2022-12-18T10:04:23;49.30;;;27.03;;
34242;SDS011;20504;43.214;27.920;2022-12-18T10:12:11;43.63;;;25.20;;
34242;SDS011;20504;43.214;27.920;2022-12-18T10:17:56;46.35;;;25.90;;
34242;SDS011;20504;43.214;27.920;2022-12-18T10:20:34;45.70;;;25.67;;
34242;SDS011;20504;43.214;27.920;2022-12-18T10:23:33;50.00;;;26.38;;
34242;SDS011;20504;43.214;27.920;2022-12-18T10:26:10;44.47;;;27.48;;
34242;SDS011;20504;43.214;27.920;2022-12-18T10:28:38;47.83;;;26.20;;
34242;SDS011;20504;43.214;27.920;2022-12-18T10:31:06;48.20;;;25.20;;
34242;SDS011;20504;43.214;27.920;2022-12-18T10:33:39;51.58;;;26.52;;
34242;SDS011;20504;43.214;27.920;2022-12-18T10:38:31;46.55;;;26.25;;
34242;SDS011;20504;43.214;27.920;2022-12-18T10:40:58;49.10;;;26.20;;
34242;SDS011;20504;43.214;27.920;2022-12-18T10:43:30;48.78;;;26.85;;
34242;SDS011;20504;43.214;27.920;2022-12-18T10:48:55;52.35;;;28.10;;
34242;SDS011;20504;43.214;27.920;2022-12-18T10:51:24;48.58;;;26.27;;
34242;SDS011;20504;43.214;27.920;2022-12-18T10:54:01;44.75;;;24.65;;
34242;SDS011;20504;43.214;27.920;2022-12-18T10:56:42;50.25;;;27.20;;
34242;SDS011;20504;43.214;27.920;2022-12-18T10:59:09;47.28;;;25.70;;
34242;SDS011;20504;43.214;27.920;2022-12-18T11:01:52;46.65;;;26.88;;
34242;SDS011;20504;43.214;27.920;2022-12-18T11:04:26;49.47;;;27.30;;
34242;SDS011;20504;43.214;27.920;2022-12-18T11:06:57;47.60;;;26.35;;
34242;SDS011;20504;43.214;27.920;2022-12-18T11:16:54;41.67;;;26.05;;
34242;SDS011;20504;43.214;27.920;2022-12-18T11:19:37;49.22;;;27.17;;
34242;SDS011;20504;43.214;27.920;2022-12-18T11:22:22;51.78;;;29.15;;
34242;SDS011;20504;43.214;27.920;2022-12-18T11:25:03;57.60;;;29.45;;
34242;SDS011;20504;43.214;27.920;2022-12-18T11:27:31;52.60;;;29.20;;
34242;SDS011;20504;43.214;27.920;2022-12-18T11:30:07;52.03;;;28.80;;
34242;SDS011;20504;43.214;27.920;2022-12-18T11:32:40;54.97;;;29.27;;
34242;SDS011;20504;43.214;27.920;2022-12-18T11:37:57;61.60;;;31.90;;
34242;SDS011;20504;43.214;27.920;2022-12-18T11:40:33;66.18;;;32.33;;
34242;SDS011;20504;43.214;27.920;2022-12-18T11:45:54;57.28;;;31.88;;
34242;SDS011;20504;43.214;27.920;2022-12-18T11:48:41;60.17;;;31.85;;
34242;SDS011;20504;43.214;27.920;2022-12-18T11:51:19;58.97;;;30.17;;
34242;SDS011;20504;43.214;27.920;2022-12-18T11:53:53;57.53;;;29.55;;
34242;SDS011;20504;43.214;27.920;2022-12-18T12:01:50;58.35;;;30.48;;
34242;SDS011;20504;43.214;27.920;2022-12-18T12:09:35;45.45;;;23.75;;
34242;SDS011;20504;43.214;27.920;2022-12-18T12:17:37;46.30;;;24.93;;
34242;SDS011;20504;43.214;27.920;2022-12-18T12:23:01;33.90;;;21.05;;
34242;SDS011;20504;43.214;27.920;2022-12-18T12:25:33;32.33;;;20.58;;
34242;SDS011;20504;43.214;27.920;2022-12-18T12:31:01;37.35;;;20.27;;
34242;SDS011;20504;43.214;27.920;2022-12-18T12:38:48;37.88;;;18.92;;
34242;SDS011;20504;43.214;27.920;2022-12-18T12:41:18;32.80;;;19.10;;
34242;SDS011;20504;43.214;27.920;2022-12-18T12:44:08;27.75;;;16.73;;
34242;SDS011;20504;43.214;27.920;2022-12-18T12:46:39;24.38;;;15.88;;
34242;SDS011;20504;43.214;27.920;2022-12-18T12:49:11;24.13;;;14.63;;
34242;SDS011;20504;43.214;27.920;2022-12-18T12:51:49;21.65;;;14.23;;
34242;SDS011;20504;43.214;27.920;2022-12-18T12:54:25;23.77;;;13.73;;
34242;SDS011;20504;43.214;27.920;2022-12-18T12:57:30;14.60;;;10.10;;
34242;SDS011;20504;43.214;27.920;2022-12-18T13:08:05;17.27;;;9.98;;
34242;SDS011;20504;43.214;27.920;2022-12-18T13:10:36;15.15;;;10.43;;
34242;SDS011;20504;43.214;27.920;2022-12-18T13:13:05;13.57;;;10.30;;
34242;SDS011;20504;43.214;27.920;2022-12-18T13:20:34;17.80;;;11.40;;
34242;SDS011;20504;43.214;27.920;2022-12-18T13:25:49;15.27;;;7.45;;
34242;SDS011;20504;43.214;27.920;2022-12-18T13:28:18;14.60;;;9.60;;
34242;SDS011;20504;43.214;27.920;2022-12-18T13:43:43;24.30;;;10.07;;
34242;SDS011;20504;43.214;27.920;2022-12-18T13:48:58;17.25;;;11.13;;
34242;SDS011;20504;43.214;27.920;2022-12-18T13:51:27;15.48;;;9.85;;
34242;SDS011;20504;43.214;27.920;2022-12-18T13:53:58;18.10;;;11.68;;
34242;SDS011;20504;43.214;27.920;2022-12-18T13:56:28;19.00;;;10.73;;
34242;SDS011;20504;43.214;27.920;2022-12-18T13:59:12;17.00;;;10.48;;
34242;SDS011;20504;43.214;27.920;2022-12-18T14:01:43;16.40;;;10.75;;
34242;SDS011;20504;43.214;27.920;2022-12-18T14:06:47;16.10;;;10.52;;
34242;SDS011;20504;43.214;27.920;2022-12-18T14:09:24;19.67;;;11.60;;
34242;SDS011;20504;43.214;27.920;2022-12-18T14:11:52;19.67;;;12.02;;
34242;SDS011;20504;43.214;27.920;2022-12-18T14:14:40;19.00;;;11.52;;
34242;SDS011;20504;43.214;27.920;2022-12-18T14:17:10;17.25;;;11.05;;
34242;SDS011;20504;43.214;27.920;2022-12-18T14:19:36;16.90;;;10.73;;
34242;SDS011;20504;43.214;27.920;2022-12-18T14:22:10;18.10;;;10.90;;
34242;SDS011;20504;43.214;27.920;2022-12-18T14:27:53;22.35;;;12.48;;
34242;SDS011;20504;43.214;27.920;2022-12-18T14:30:35;21.65;;;11.75;;
34242;SDS011;20504;43.214;27.920;2022-12-18T14:33:21;19.50;;;11.57;;
34242;SDS011;20504;43.214;27.920;2022-12-18T14:36:01;17.95;;;10.95;;
34242;SDS011;20504;43.214;27.920;2022-12-18T14:38:32;20.38;;;12.27;;
34242;SDS011;20504;43.214;27.920;2022-12-18T14:41:03;18.55;;;11.73;;
34242;SDS011;20504;43.214;27.920;2022-12-18T14:43:40;18.60;;;11.38;;
34242;SDS011;20504;43.214;27.920;2022-12-18T14:48:58;25.02;;;13.77;;
34242;SDS011;20504;43.214;27.920;2022-12-18T14:51:51;20.25;;;12.15;;
34242;SDS011;20504;43.214;27.920;2022-12-18T14:54:19;25.10;;;15.10;;
34242;SDS011;20504;43.214;27.920;2022-12-18T14:56:46;20.80;;;14.07;;
34242;SDS011;20504;43.214;27.920;2022-12-18T14:59:15;27.77;;;13.73;;
34242;SDS011;20504;43.214;27.920;2022-12-18T15:01:45;17.73;;;11.88;;
34242;SDS011;20504;43.214;27.920;2022-12-18T15:09:40;22.88;;;13.75;;
34242;SDS011;20504;43.214;27.920;2022-12-18T15:12:28;21.83;;;12.88;;
34242;SDS011;20504;43.214;27.920;2022-12-18T15:15:00;21.80;;;13.10;;
34242;SDS011;20504;43.214;27.920;2022-12-18T15:17:26;23.75;;;14.10;;
34242;SDS011;20504;43.214;27.920;2022-12-18T15:20:02;25.80;;;14.20;;
34242;SDS011;20504;43.214;27.920;2022-12-18T15:22:34;25.63;;;13.10;;
34242;SDS011;20504;43.214;27.920;2022-12-18T15:25:01;22.55;;;13.27;;
34242;SDS011;20504;43.214;27.920;2022-12-18T15:27:33;27.45;;;13.93;;
34242;SDS011;20504;43.214;27.920;2022-12-18T15:32:35;23.48;;;13.80;;
34242;SDS011;20504;43.214;27.920;2022-12-18T15:35:03;24.98;;;14.55;;
34242;SDS011;20504;43.214;27.920;2022-12-18T15:37:50;24.40;;;14.05;;
34242;SDS011;20504;43.214;27.920;2022-12-18T15:40:21;23.83;;;14.13;;
34242;SDS011;20504;43.214;27.920;2022-12-18T15:42:48;23.40;;;15.15;;
34242;SDS011;20504;43.214;27.920;2022-12-18T15:45:36;25.27;;;14.55;;
34242;SDS011;20504;43.214;27.920;2022-12-18T15:48:01;22.17;;;13.43;;
34242;SDS011;20504;43.214;27.920;2022-12-18T15:50:27;22.30;;;13.53;;
34242;SDS011;20504;43.214;27.920;2022-12-18T15:52:53;31.65;;;14.73;;
34242;SDS011;20504;43.214;27.920;2022-12-18T15:55:21;26.58;;;15.68;;
34242;SDS011;20504;43.214;27.920;2022-12-18T15:58:07;25.50;;;16.25;;
34242;SDS011;20504;43.214;27.920;2022-12-18T16:00:34;23.80;;;14.43;;
34242;SDS011;20504;43.214;27.920;2022-12-18T16:03:01;26.50;;;14.95;;
34242;SDS011;20504;43.214;27.920;2022-12-18T16:05:27;22.27;;;13.93;;
34242;SDS011;20504;43.214;27.920;2022-12-18T16:07:53;22.50;;;14.13;;
34242;SDS011;20504;43.214;27.920;2022-12-18T16:10:19;26.40;;;14.10;;
34242;SDS011;20504;43.214;27.920;2022-12-18T16:12:45;23.63;;;13.97;;
34242;SDS011;20504;43.214;27.920;2022-12-18T16:15:11;23.77;;;13.37;;
34242;SDS011;20504;43.214;27.920;2022-12-18T16:17:45;19.58;;;12.90;;
34242;SDS011;20504;43.214;27.920;2022-12-18T16:20:12;33.63;;;18.88;;
34242;SDS011;20504;43.214;27.920;2022-12-18T16:22:40;25.05;;;14.93;;
34242;SDS011;20504;43.214;27.920;2022-12-18T16:25:08;21.63;;;14.05;;
34242;SDS011;20504;43.214;27.920;2022-12-18T16:27:55;23.88;;;13.93;;
34242;SDS011;20504;43.214;27.920;2022-12-18T16:30:22;23.50;;;13.77;;
34242;SDS011;20504;43.214;27.920;2022-12-18T16:32:50;25.60;;;14.60;;
34242;SDS011;20504;43.214;27.920;2022-12-18T16:35:16;29.03;;;16.23;;
34242;SDS011;20504;43.214;27.920;2022-12-18T16:37:41;27.30;;;15.35;;
34242;SDS011;20504;43.214;27.920;2022-12-18T16:40:08;28.90;;;13.68;;
34242;SDS011;20504;43.214;27.920;2022-12-18T16:42:36;24.52;;;14.15;;
34242;SDS011;20504;43.214;27.920;2022-12-18T16:45:03;20.83;;;13.55;;
34242;SDS011;20504;43.214;27.920;2022-12-18T16:47:29;25.38;;;14.57;;